createdAt,value
2018-05-07T00:00:23.315Z,10.41
2018-05-07T00:01:23.240Z,10.35
2018-05-07T00:03:15.974Z,10.31
2018-05-07T00:04:15.919Z,10.35
2018-05-07T00:06:08.666Z,10.30
2018-05-07T00:07:08.520Z,10.38
2018-05-07T00:09:01.312Z,10.28
2018-05-07T00:10:01.183Z,10.23
2018-05-07T00:11:54.126Z,10.23
2018-05-07T00:12:53.908Z,10.20
2018-05-07T00:14:46.666Z,10.20
2018-05-07T00:15:46.600Z,10.12
2018-05-07T00:17:39.345Z,10.02
2018-05-07T00:18:39.211Z,10.03
2018-05-07T00:20:32.031Z,9.96
2018-05-07T00:21:31.855Z,9.85
2018-05-07T00:23:24.610Z,9.94
2018-05-07T00:24:24.506Z,10.02
2018-05-07T00:26:17.339Z,9.88
2018-05-07T00:27:17.261Z,9.87
2018-05-07T00:29:10.014Z,9.77
2018-05-07T00:30:09.901Z,9.78
2018-05-07T00:32:02.653Z,9.84
2018-05-07T00:33:02.559Z,9.78
2018-05-07T00:34:55.440Z,9.75
2018-05-07T00:35:55.302Z,9.75
2018-05-07T00:37:48.050Z,9.78
2018-05-07T00:38:47.945Z,9.69
2018-05-07T00:40:40.706Z,9.73
2018-05-07T00:41:40.612Z,9.65
2018-05-07T00:43:33.336Z,9.66
2018-05-07T00:44:33.240Z,9.62
2018-05-07T00:46:25.992Z,9.63
2018-05-07T00:47:25.884Z,9.62
2018-05-07T00:49:18.754Z,9.55
2018-05-07T00:50:18.627Z,9.52
2018-05-07T00:52:11.511Z,9.51
2018-05-07T00:53:11.274Z,9.48
2018-05-07T00:55:04.044Z,9.50
2018-05-07T00:56:03.941Z,9.47
2018-05-07T00:57:56.669Z,9.51
2018-05-07T00:58:56.588Z,9.42
2018-05-07T01:00:49.351Z,9.42
2018-05-07T01:01:49.282Z,9.37
2018-05-07T01:03:41.964Z,9.40
2018-05-07T01:04:41.876Z,9.32
2018-05-07T01:06:34.640Z,9.40
2018-05-07T01:07:34.549Z,9.37
2018-05-07T01:09:27.378Z,9.29
2018-05-07T01:10:27.261Z,9.29
2018-05-07T01:12:20.130Z,9.27
2018-05-07T01:13:20.007Z,9.19
2018-05-07T01:15:12.758Z,9.23
2018-05-07T01:16:12.670Z,9.22
2018-05-07T01:18:05.454Z,9.19
2018-05-07T01:19:05.308Z,9.08
2018-05-07T01:20:58.049Z,9.01
2018-05-07T01:21:57.957Z,9.08
2018-05-07T01:23:50.815Z,9.01
2018-05-07T01:24:50.619Z,9.08
2018-05-07T01:26:43.363Z,9.16
2018-05-07T01:27:43.249Z,9.16
2018-05-07T01:29:36.028Z,9.06
2018-05-07T01:30:35.900Z,9.04
2018-05-07T01:32:28.668Z,8.98
2018-05-07T01:33:28.546Z,9.01
2018-05-07T01:35:21.310Z,8.85
2018-05-07T01:36:21.189Z,8.86
2018-05-07T01:38:13.948Z,8.86
2018-05-07T01:39:13.852Z,8.75
2018-05-07T01:41:06.585Z,8.86
2018-05-07T01:42:06.485Z,8.80
2018-05-07T01:43:59.247Z,8.81
2018-05-07T01:44:59.133Z,8.77
2018-05-07T01:46:51.977Z,8.78
2018-05-07T01:47:51.877Z,8.77
2018-05-07T01:49:44.656Z,8.75
2018-05-07T01:50:44.540Z,8.77
2018-05-07T01:52:37.281Z,8.77
2018-05-07T01:53:37.176Z,8.72
2018-05-07T01:55:29.927Z,8.75
2018-05-07T01:56:29.826Z,8.60
2018-05-07T01:58:22.571Z,8.62
2018-05-07T01:59:22.475Z,8.62
2018-05-07T02:01:15.335Z,8.72
2018-05-07T02:02:15.217Z,8.60
2018-05-07T02:04:07.957Z,8.59
2018-05-07T02:05:07.905Z,8.57
2018-05-07T02:07:00.653Z,8.62
2018-05-07T02:08:00.520Z,8.59
2018-05-07T02:09:53.280Z,8.55
2018-05-07T02:10:53.170Z,8.50
2018-05-07T02:12:46.017Z,8.56
2018-05-07T02:13:45.809Z,8.46
2018-05-07T02:15:38.588Z,8.47
2018-05-07T02:16:38.458Z,8.47
2018-05-07T02:18:31.210Z,8.37
2018-05-07T02:19:31.103Z,8.39
2018-05-07T02:21:23.892Z,8.35
2018-05-07T02:22:23.753Z,8.20
2018-05-07T02:24:16.539Z,8.26
2018-05-07T02:25:16.399Z,8.31
2018-05-07T02:27:09.148Z,8.20
2018-05-07T02:28:09.061Z,8.13
2018-05-07T02:30:01.882Z,8.09
2018-05-07T02:31:01.812Z,8.14
2018-05-07T02:32:54.557Z,8.19
2018-05-07T02:33:54.456Z,8.10
2018-05-07T02:35:47.222Z,8.13
2018-05-07T02:36:47.119Z,8.13
2018-05-07T02:38:39.842Z,8.13
2018-05-07T02:39:39.781Z,7.98
2018-05-07T02:41:32.470Z,8.09
2018-05-07T02:42:32.384Z,8.05
2018-05-07T02:44:25.247Z,8.05
2018-05-07T02:45:25.130Z,8.09
2018-05-07T02:47:18.001Z,8.04
2018-05-07T02:48:17.912Z,8.05
2018-05-07T02:50:10.765Z,8.02
2018-05-07T02:51:10.637Z,8.01
2018-05-07T02:53:03.396Z,7.95
2018-05-07T02:54:03.277Z,7.94
2018-05-07T02:55:56.048Z,7.92
2018-05-07T02:56:55.921Z,7.92
2018-05-07T02:58:48.697Z,8.04
2018-05-07T02:59:48.610Z,7.99
2018-05-07T03:01:41.316Z,8.04
2018-05-07T03:02:41.224Z,8.13
2018-05-07T03:04:33.982Z,7.99
2018-05-07T03:05:33.873Z,8.01
2018-05-07T03:07:26.637Z,8.01
2018-05-07T03:08:26.520Z,7.94
2018-05-07T03:10:19.309Z,7.91
2018-05-07T03:11:19.229Z,7.81
2018-05-07T03:13:11.918Z,7.80
2018-05-07T03:14:11.809Z,7.83
2018-05-07T03:16:04.556Z,7.80
2018-05-07T03:17:04.458Z,7.78
2018-05-07T03:18:57.302Z,7.73
2018-05-07T03:19:57.239Z,7.69
2018-05-07T03:21:49.989Z,7.61
2018-05-07T03:22:49.851Z,7.61
2018-05-07T03:24:42.620Z,7.60
2018-05-07T03:25:42.509Z,7.52
2018-05-07T03:27:35.361Z,7.57
2018-05-07T03:28:35.260Z,7.69
2018-05-07T03:30:28.033Z,7.68
2018-05-07T03:31:27.894Z,7.71
2018-05-07T03:33:20.862Z,7.54
2018-05-07T03:34:20.783Z,7.54
2018-05-07T03:36:13.523Z,7.54
2018-05-07T03:37:13.396Z,7.52
2018-05-07T03:39:06.243Z,7.62
2018-05-07T03:40:06.148Z,7.60
2018-05-07T03:41:58.929Z,7.50
2018-05-07T03:42:58.790Z,7.58
2018-05-07T03:44:51.635Z,7.54
2018-05-07T03:45:51.540Z,7.58
2018-05-07T03:47:44.303Z,7.52
2018-05-07T03:48:44.223Z,7.57
2018-05-07T03:50:36.951Z,7.61
2018-05-07T03:51:36.829Z,7.62
2018-05-07T03:53:29.691Z,7.57
2018-05-07T03:54:29.602Z,7.64
2018-05-07T03:56:22.323Z,7.55
2018-05-07T03:57:22.237Z,7.58
2018-05-07T03:59:15.102Z,7.58
2018-05-07T04:00:14.874Z,7.57
2018-05-07T04:02:07.654Z,7.54
2018-05-07T04:03:07.528Z,7.49
2018-05-07T04:05:00.277Z,7.55
2018-05-07T04:06:00.203Z,7.55
2018-05-07T04:07:52.975Z,7.55
2018-05-07T04:08:52.837Z,7.55
2018-05-07T04:10:45.700Z,7.66
2018-05-07T04:11:45.471Z,7.61
2018-05-07T04:13:38.246Z,7.54
2018-05-07T04:14:38.132Z,7.52
2018-05-07T04:16:31.005Z,7.54
2018-05-07T04:17:30.974Z,7.61
2018-05-07T04:19:23.727Z,7.64
2018-05-07T04:20:23.511Z,7.61
2018-05-07T04:22:16.254Z,7.66
2018-05-07T04:23:16.152Z,7.78
2018-05-07T04:25:09.033Z,7.78
2018-05-07T04:26:08.809Z,7.73
2018-05-07T04:28:01.623Z,7.76
2018-05-07T04:29:01.458Z,7.69
2018-05-07T04:30:54.310Z,7.69
2018-05-07T04:31:54.093Z,7.74
2018-05-07T04:33:46.934Z,7.78
2018-05-07T04:34:46.741Z,7.76
2018-05-07T04:36:39.493Z,7.86
2018-05-07T04:37:39.418Z,7.91
2018-05-07T04:39:32.146Z,7.94
2018-05-07T04:40:32.040Z,7.95
2018-05-07T04:42:24.800Z,7.87
2018-05-07T04:43:24.687Z,7.92
2018-05-07T04:45:17.564Z,7.81
2018-05-07T04:46:17.442Z,7.94
2018-05-07T04:48:10.325Z,7.92
2018-05-07T04:49:10.224Z,7.88
2018-05-07T04:51:03.070Z,8.01
2018-05-07T04:52:02.930Z,8.06
2018-05-07T04:53:55.696Z,8.01
2018-05-07T04:54:55.588Z,7.94
2018-05-07T04:56:48.349Z,8.05
2018-05-07T04:57:48.230Z,8.04
2018-05-07T04:59:41.014Z,8.02
2018-05-07T05:00:40.876Z,8.06
2018-05-07T05:02:33.661Z,8.05
2018-05-07T05:03:33.548Z,7.99
2018-05-07T05:05:26.273Z,8.01
2018-05-07T05:06:26.181Z,8.04
2018-05-07T05:08:18.939Z,8.12
2018-05-07T05:09:18.825Z,8.05
2018-05-07T05:11:11.617Z,8.13
2018-05-07T05:12:11.477Z,8.17
2018-05-07T05:14:04.236Z,8.29
2018-05-07T05:15:04.111Z,8.24
2018-05-07T05:16:56.868Z,8.29
2018-05-07T05:17:56.778Z,8.35
2018-05-07T05:19:49.636Z,8.37
2018-05-07T05:20:49.531Z,8.42
2018-05-07T05:22:42.282Z,8.49
2018-05-07T05:23:42.162Z,8.41
2018-05-07T05:25:34.938Z,8.47
2018-05-07T05:26:34.806Z,8.50
2018-05-07T05:28:27.694Z,8.59
2018-05-07T05:29:27.484Z,8.63
2018-05-07T05:31:20.345Z,8.60
2018-05-07T05:32:20.231Z,8.60
2018-05-07T05:34:12.970Z,8.74
2018-05-07T05:35:12.849Z,8.75
2018-05-07T05:37:05.599Z,8.96
2018-05-07T05:38:05.503Z,9.01
2018-05-07T05:39:58.390Z,9.18
2018-05-07T05:40:58.283Z,9.27
2018-05-07T05:42:51.109Z,9.40
2018-05-07T05:43:51.071Z,9.48
2018-05-07T05:45:43.756Z,9.60
2018-05-07T05:46:43.643Z,9.77
2018-05-07T05:48:36.482Z,9.70
2018-05-07T05:49:36.388Z,9.84
2018-05-07T05:51:29.148Z,10.03
2018-05-07T05:52:29.051Z,10.10
2018-05-07T05:54:21.792Z,10.14
2018-05-07T05:55:21.689Z,10.18
2018-05-07T05:57:14.537Z,10.24
2018-05-07T05:58:14.460Z,10.26
2018-05-07T06:00:07.242Z,10.35
2018-05-07T06:01:07.084Z,10.41
2018-05-07T06:02:59.862Z,10.46
2018-05-07T06:03:59.781Z,10.48
2018-05-07T06:05:52.580Z,10.76
2018-05-07T06:06:52.482Z,10.73
2018-05-07T06:08:45.255Z,10.86
2018-05-07T06:09:45.126Z,10.97
2018-05-07T06:11:37.890Z,11.11
2018-05-07T06:12:37.775Z,11.27
2018-05-07T06:14:30.586Z,11.46
2018-05-07T06:15:30.441Z,11.52
2018-05-07T06:17:23.360Z,11.79
2018-05-07T06:18:23.165Z,11.87
2018-05-07T06:20:15.916Z,12.05
2018-05-07T06:21:15.825Z,12.05
2018-05-07T06:23:08.578Z,12.14
2018-05-07T06:24:08.473Z,12.13
2018-05-07T06:26:01.236Z,12.29
2018-05-07T06:27:01.143Z,12.36
2018-05-07T06:28:53.873Z,12.26
2018-05-07T06:29:53.768Z,12.32
2018-05-07T06:31:46.512Z,12.40
2018-05-07T06:32:46.407Z,12.53
2018-05-07T06:34:39.167Z,12.66
2018-05-07T06:35:39.059Z,12.73
2018-05-07T06:37:31.828Z,12.84
2018-05-07T06:38:31.721Z,12.96
2018-05-07T06:40:24.477Z,12.88
2018-05-07T06:41:24.347Z,13.01
2018-05-07T06:43:17.144Z,13.05
2018-05-07T06:44:17.013Z,13.13
2018-05-07T06:46:09.844Z,13.19
2018-05-07T06:47:09.748Z,13.35
2018-05-07T06:49:02.522Z,13.40
2018-05-07T06:50:02.392Z,13.51
2018-05-07T06:51:55.153Z,13.63
2018-05-07T06:52:55.048Z,13.71
2018-05-07T06:54:47.903Z,13.80
2018-05-07T06:55:47.805Z,13.86
2018-05-07T06:57:40.555Z,13.93
2018-05-07T06:58:40.453Z,13.93
2018-05-07T07:00:33.200Z,13.96
2018-05-07T07:01:33.112Z,14.03
2018-05-07T07:03:25.844Z,14.08
2018-05-07T07:04:25.763Z,14.12
2018-05-07T07:06:18.706Z,14.15
2018-05-07T07:07:18.589Z,14.27
2018-05-07T07:09:11.339Z,14.22
2018-05-07T07:10:11.256Z,14.37
2018-05-07T07:12:03.994Z,14.63
2018-05-07T07:13:03.885Z,14.66
2018-05-07T07:14:56.766Z,14.87
2018-05-07T07:15:56.558Z,14.93
2018-05-07T07:17:49.327Z,14.92
2018-05-07T07:18:49.245Z,14.96
2018-05-07T07:20:41.944Z,14.96
2018-05-07T07:21:41.905Z,15.05
2018-05-07T07:23:34.761Z,15.20
2018-05-07T07:24:34.699Z,15.15
2018-05-07T07:26:27.990Z,15.19
2018-05-07T07:27:27.846Z,15.25
2018-05-07T07:29:20.682Z,15.26
2018-05-07T07:30:20.591Z,15.45
2018-05-07T07:32:13.386Z,15.83
2018-05-07T07:33:13.306Z,16.10
2018-05-07T07:35:06.585Z,16.32
2018-05-07T07:36:05.913Z,16.46
2018-05-07T07:37:58.636Z,16.61
2018-05-07T07:38:58.526Z,16.54
2018-05-07T07:40:51.292Z,16.57
2018-05-07T07:41:51.182Z,16.67
2018-05-07T07:43:43.935Z,16.80
2018-05-07T07:44:43.899Z,16.97
2018-05-07T07:46:36.562Z,17.13
2018-05-07T07:47:36.480Z,17.25
2018-05-07T07:49:29.352Z,17.43
2018-05-07T07:50:29.230Z,17.45
2018-05-07T07:52:22.105Z,17.72
2018-05-07T07:53:21.976Z,17.71
2018-05-07T07:55:14.829Z,17.68
2018-05-07T07:56:14.714Z,17.84
2018-05-07T07:58:07.474Z,17.93
2018-05-07T07:59:07.388Z,17.97
2018-05-07T08:01:00.638Z,18.26
2018-05-07T08:02:00.521Z,18.33
2018-05-07T08:03:53.368Z,18.34
2018-05-07T08:04:53.297Z,18.31
2018-05-07T08:06:46.144Z,18.33
2018-05-07T08:07:46.018Z,18.45
2018-05-07T08:09:39.907Z,18.46
2018-05-07T08:10:39.698Z,18.52
2018-05-07T08:12:32.549Z,18.61
2018-05-07T08:13:32.458Z,18.79
2018-05-07T08:15:25.339Z,18.96
2018-05-07T08:16:25.188Z,18.93
2018-05-07T08:18:18.033Z,19.04
2018-05-07T08:19:17.948Z,19.05
2018-05-07T08:21:10.800Z,19.08
2018-05-07T08:22:10.730Z,19.01
2018-05-07T08:24:03.558Z,19.17
2018-05-07T08:25:03.453Z,19.22
2018-05-07T08:26:56.336Z,19.38
2018-05-07T08:27:56.187Z,19.38
2018-05-07T08:29:49.035Z,19.41
2018-05-07T08:30:48.938Z,19.50
2018-05-07T08:32:41.895Z,19.63
2018-05-07T08:33:41.804Z,19.56
2018-05-07T08:35:34.641Z,19.67
2018-05-07T08:36:34.635Z,19.54
2018-05-07T08:38:27.399Z,19.49
2018-05-07T08:39:27.295Z,19.45
2018-05-07T08:41:20.180Z,19.57
2018-05-07T08:42:20.145Z,19.52
2018-05-07T08:44:12.975Z,19.56
2018-05-07T08:45:12.841Z,19.62
2018-05-07T08:47:05.651Z,19.52
2018-05-07T08:48:05.555Z,19.62
2018-05-07T08:49:58.389Z,19.90
2018-05-07T08:50:58.379Z,19.89
2018-05-07T08:52:51.279Z,19.96
2018-05-07T08:53:51.156Z,20.08
2018-05-07T08:55:43.978Z,20.04
2018-05-07T08:56:43.911Z,20.05
2018-05-07T08:58:36.774Z,20.12
2018-05-07T08:59:36.645Z,19.97
2018-05-07T09:01:29.480Z,20.15
2018-05-07T09:02:29.450Z,20.17
2018-05-07T09:04:22.250Z,20.33
2018-05-07T09:05:22.159Z,20.42
2018-05-07T09:07:15.019Z,20.65
2018-05-07T09:08:14.887Z,20.61
2018-05-07T09:10:07.766Z,20.52
2018-05-07T09:11:07.638Z,20.60
2018-05-07T09:13:00.518Z,20.55
2018-05-07T09:14:00.391Z,20.39
2018-05-07T09:15:53.258Z,20.33
2018-05-07T09:16:53.168Z,20.39
2018-05-07T09:18:45.995Z,20.55
2018-05-07T09:19:45.900Z,20.68
2018-05-07T09:21:38.738Z,20.86
2018-05-07T09:22:38.653Z,20.85
2018-05-07T09:24:31.495Z,20.86
2018-05-07T09:25:31.388Z,20.90
2018-05-07T09:27:24.247Z,21.04
2018-05-07T09:28:24.150Z,20.93
2018-05-07T09:30:16.994Z,20.80
2018-05-07T09:31:16.892Z,20.70
2018-05-07T09:33:09.736Z,20.55
2018-05-07T09:34:09.636Z,20.63
2018-05-07T09:36:02.496Z,20.70
2018-05-07T09:37:02.391Z,20.77
2018-05-07T09:38:55.252Z,21.03
2018-05-07T09:39:55.135Z,21.13
2018-05-07T09:41:47.990Z,21.34
2018-05-07T09:42:47.913Z,21.34
2018-05-07T09:44:40.744Z,21.47
2018-05-07T09:45:40.638Z,21.59
2018-05-07T09:47:33.477Z,21.47
2018-05-07T09:48:33.382Z,21.44
2018-05-07T09:50:26.250Z,21.32
2018-05-07T09:51:26.137Z,21.25
2018-05-07T09:53:18.974Z,21.10
2018-05-07T09:54:18.891Z,21.16
2018-05-07T09:56:11.766Z,21.30
2018-05-07T09:57:11.637Z,21.28
2018-05-07T09:59:04.510Z,21.34
2018-05-07T10:00:04.384Z,21.32
2018-05-07T10:01:57.241Z,21.41
2018-05-07T10:02:57.150Z,21.40
2018-05-07T10:04:49.991Z,21.47
2018-05-07T10:05:49.888Z,21.45
2018-05-07T10:07:42.735Z,21.56
2018-05-07T10:08:42.641Z,21.45
2018-05-07T10:10:35.513Z,21.51
2018-05-07T10:11:35.380Z,21.59
2018-05-07T10:13:28.234Z,21.60
2018-05-07T10:14:28.133Z,21.77
2018-05-07T10:16:20.987Z,21.73
2018-05-07T10:17:20.904Z,21.77
2018-05-07T10:19:13.738Z,21.66
2018-05-07T10:20:13.678Z,21.75
2018-05-07T10:22:06.503Z,21.75
2018-05-07T10:23:06.407Z,21.88
2018-05-07T10:25:00.163Z,21.84
2018-05-07T10:26:00.079Z,22.04
2018-05-07T10:27:52.992Z,21.98
2018-05-07T10:28:52.811Z,22.01
2018-05-07T10:30:45.638Z,22.00
2018-05-07T10:31:45.567Z,22.04
2018-05-07T10:33:38.406Z,22.01
2018-05-07T10:34:38.300Z,21.96
2018-05-07T10:36:31.147Z,22.03
2018-05-07T10:37:31.061Z,22.09
2018-05-07T10:39:24.832Z,22.22
2018-05-07T10:40:24.738Z,22.37
2018-05-07T10:42:17.562Z,22.41
2018-05-07T10:43:17.487Z,22.44
2018-05-07T10:45:10.367Z,21.88
2018-05-07T10:46:10.222Z,21.73
2018-05-07T10:48:03.188Z,21.98
2018-05-07T10:49:02.982Z,22.19
2018-05-07T10:50:56.329Z,22.22
2018-05-07T10:51:56.239Z,22.28
2018-05-07T10:53:49.610Z,22.59
2018-05-07T10:54:49.499Z,22.73
2018-05-07T10:56:42.341Z,22.98
2018-05-07T10:57:42.239Z,23.04
2018-05-07T10:59:35.103Z,22.96
2018-05-07T11:00:35.020Z,22.91
2018-05-07T11:02:27.846Z,23.03
2018-05-07T11:03:27.750Z,23.15
2018-05-07T11:05:20.597Z,22.89
2018-05-07T11:06:20.492Z,22.96
2018-05-07T11:08:13.858Z,22.41
2018-05-07T11:09:13.790Z,22.36
2018-05-07T11:11:06.607Z,22.15
2018-05-07T11:12:06.506Z,22.25
2018-05-07T11:13:59.352Z,22.36
2018-05-07T11:14:59.252Z,22.44
2018-05-07T11:16:52.125Z,23.07
2018-05-07T11:17:52.007Z,23.23
2018-05-07T11:19:44.984Z,23.39
2018-05-07T11:20:44.765Z,23.28
2018-05-07T11:22:37.628Z,23.37
2018-05-07T11:23:37.525Z,23.42
2018-05-07T11:25:30.398Z,23.07
2018-05-07T11:26:30.281Z,22.85
2018-05-07T11:28:23.093Z,22.74
2018-05-07T11:29:23.014Z,22.70
2018-05-07T11:31:15.852Z,23.06
2018-05-07T11:32:15.777Z,23.33
2018-05-07T11:34:08.586Z,23.55
2018-05-07T11:35:08.504Z,23.59
2018-05-07T11:37:01.358Z,23.73
2018-05-07T11:38:01.272Z,23.79
2018-05-07T11:39:54.120Z,23.98
2018-05-07T11:40:54.007Z,23.94
2018-05-07T11:42:46.871Z,23.70
2018-05-07T11:43:46.763Z,23.71
2018-05-07T11:45:39.582Z,23.64
2018-05-07T11:46:39.499Z,23.41
2018-05-07T11:48:32.358Z,23.21
2018-05-07T11:49:32.250Z,23.22
2018-05-07T11:51:25.124Z,23.18
2018-05-07T11:52:25.002Z,23.37
2018-05-07T11:54:17.880Z,23.60
2018-05-07T11:55:17.753Z,23.67
2018-05-07T11:57:10.602Z,23.73
2018-05-07T11:58:10.501Z,23.79
2018-05-07T12:00:03.367Z,23.89
2018-05-07T12:01:03.257Z,23.78
2018-05-07T12:02:56.110Z,23.55
2018-05-07T12:03:56.000Z,23.42
2018-05-07T12:05:48.897Z,23.34
2018-05-07T12:06:48.775Z,23.39
2018-05-07T12:08:41.600Z,23.42
2018-05-07T12:09:41.497Z,23.46
2018-05-07T12:11:34.349Z,23.56
2018-05-07T12:12:34.260Z,23.46
2018-05-07T12:14:27.115Z,23.41
2018-05-07T12:15:27.001Z,23.44
2018-05-07T12:17:20.346Z,23.44
2018-05-07T12:18:20.258Z,23.41
2018-05-07T12:20:13.109Z,23.37
2018-05-07T12:21:13.047Z,23.31
2018-05-07T12:23:05.868Z,23.33
2018-05-07T12:24:05.781Z,23.37
2018-05-07T12:25:58.649Z,23.46
2018-05-07T12:26:58.512Z,23.60
2018-05-07T12:28:51.359Z,23.66
2018-05-07T12:29:51.258Z,23.92
2018-05-07T12:31:44.276Z,23.97
2018-05-07T12:32:44.012Z,24.11
2018-05-07T12:34:36.894Z,24.04
2018-05-07T12:35:36.801Z,23.85
2018-05-07T12:37:29.612Z,23.86
2018-05-07T12:38:29.517Z,23.81
2018-05-07T12:40:22.410Z,23.86
2018-05-07T12:41:22.265Z,23.78
2018-05-07T12:43:15.097Z,23.61
2018-05-07T12:44:15.014Z,23.74
2018-05-07T12:46:07.860Z,24.26
2018-05-07T12:47:07.766Z,24.26
2018-05-07T12:49:00.628Z,24.26
2018-05-07T12:50:00.567Z,24.34
2018-05-07T12:51:53.424Z,24.25
2018-05-07T12:52:53.270Z,24.16
2018-05-07T12:54:46.138Z,24.22
2018-05-07T12:55:46.009Z,24.16
2018-05-07T12:57:38.878Z,24.13
2018-05-07T12:58:38.763Z,24.25
2018-05-07T13:00:31.611Z,24.71
2018-05-07T13:01:31.531Z,24.81
2018-05-07T13:03:24.384Z,24.96
2018-05-07T13:04:24.269Z,25.09
2018-05-07T13:06:17.642Z,25.27
2018-05-07T13:07:17.431Z,25.34
2018-05-07T13:09:10.256Z,25.16
2018-05-07T13:10:10.164Z,25.11
2018-05-07T13:12:03.071Z,25.19
2018-05-07T13:13:02.919Z,25.14
2018-05-07T13:14:55.776Z,24.65
2018-05-07T13:15:55.661Z,24.86
2018-05-07T13:17:48.543Z,25.09
2018-05-07T13:18:48.411Z,25.04
2018-05-07T13:20:41.275Z,25.00
2018-05-07T13:21:41.183Z,25.14
2018-05-07T13:23:34.593Z,25.38
2018-05-07T13:24:33.909Z,25.26
2018-05-07T13:26:26.802Z,25.08
2018-05-07T13:27:26.670Z,25.14
2018-05-07T13:29:19.557Z,24.76
2018-05-07T13:30:19.451Z,24.53
2018-05-07T13:32:12.269Z,24.31
2018-05-07T13:33:12.176Z,24.29
2018-05-07T13:35:05.033Z,24.38
2018-05-07T13:36:04.914Z,24.33
2018-05-07T13:37:57.799Z,24.36
2018-05-07T13:38:57.657Z,24.45
2018-05-07T13:40:50.500Z,24.55
2018-05-07T13:41:50.415Z,24.38
2018-05-07T13:43:43.258Z,24.84
2018-05-07T13:44:43.159Z,25.21
2018-05-07T13:46:35.994Z,25.71
2018-05-07T13:47:36.047Z,25.86
2018-05-07T13:49:31.866Z,25.89
2018-05-07T13:50:31.759Z,26.00
2018-05-07T13:52:24.970Z,25.88
2018-05-07T13:53:24.896Z,25.51
2018-05-07T13:55:18.234Z,25.38
2018-05-07T13:56:17.640Z,25.23
2018-05-07T13:58:14.436Z,25.09
2018-05-07T14:01:04.977Z,25.16
2018-05-07T14:02:04.888Z,25.31
2018-05-07T14:04:01.251Z,25.74
2018-05-07T14:05:01.195Z,25.86
2018-05-07T14:06:53.593Z,25.89
2018-05-07T14:07:53.450Z,25.82
2018-05-07T14:09:46.325Z,25.64
2018-05-07T14:10:46.210Z,25.90
2018-05-07T14:12:39.569Z,26.28
2018-05-07T14:13:39.464Z,26.52
2018-05-07T14:15:32.317Z,26.90
2018-05-07T14:16:32.209Z,26.98
2018-05-07T14:18:25.063Z,26.98
2018-05-07T14:19:24.970Z,26.90
2018-05-07T14:21:17.857Z,26.21
2018-05-07T14:22:17.711Z,25.59
2018-05-07T14:24:10.591Z,25.71
2018-05-07T14:25:10.477Z,26.01
2018-05-07T14:27:03.305Z,25.83
2018-05-07T14:28:03.206Z,25.61
2018-05-07T14:29:56.051Z,25.96
2018-05-07T14:30:55.957Z,26.52
2018-05-07T14:32:48.830Z,26.46
2018-05-07T14:33:48.712Z,25.98
2018-05-07T14:35:41.565Z,26.08
2018-05-07T14:36:41.481Z,26.36
2018-05-07T14:38:34.304Z,26.34
2018-05-07T14:39:34.213Z,26.31
2018-05-07T14:41:27.111Z,27.04
2018-05-07T14:42:27.006Z,27.23
2018-05-07T14:44:19.824Z,27.42
2018-05-07T14:45:19.711Z,27.58
2018-05-07T14:47:12.591Z,27.97
2018-05-07T14:48:12.482Z,27.91
2018-05-07T14:50:05.310Z,27.50
2018-05-07T14:51:05.210Z,27.52
2018-05-07T14:52:58.068Z,27.45
2018-05-07T14:53:57.973Z,27.22
2018-05-07T14:55:50.854Z,27.61
2018-05-07T14:56:50.709Z,27.75
2018-05-07T14:58:43.690Z,28.01
2018-05-07T14:59:43.461Z,28.20
2018-05-07T15:01:36.291Z,28.49
2018-05-07T15:02:36.205Z,28.93
2018-05-07T15:04:29.077Z,29.59
2018-05-07T15:05:29.015Z,29.74
2018-05-07T15:07:21.805Z,30.11
2018-05-07T15:08:21.706Z,30.10
2018-05-07T15:10:15.687Z,30.28
2018-05-07T15:11:14.964Z,30.53
2018-05-07T15:13:07.793Z,30.10
2018-05-07T15:14:07.716Z,30.03
2018-05-07T15:16:00.583Z,30.22
2018-05-07T15:17:00.470Z,30.32
2018-05-07T15:18:53.322Z,30.18
2018-05-07T15:19:53.227Z,29.93
2018-05-07T15:21:46.112Z,30.20
2018-05-07T15:22:45.963Z,30.22
2018-05-07T15:24:38.834Z,30.56
2018-05-07T15:25:38.732Z,30.68
2018-05-07T15:27:31.600Z,31.01
2018-05-07T15:28:31.510Z,31.02
2018-05-07T15:30:24.368Z,31.10
2018-05-07T15:31:24.217Z,30.88
2018-05-07T15:33:17.236Z,30.97
2018-05-07T15:34:16.968Z,31.22
2018-05-07T15:36:09.815Z,31.56
2018-05-07T15:37:09.709Z,31.30
2018-05-07T15:39:02.547Z,31.01
2018-05-07T15:40:02.481Z,31.34
2018-05-07T15:41:55.313Z,31.60
2018-05-07T15:42:55.227Z,31.42
2018-05-07T15:44:48.064Z,31.41
2018-05-07T15:45:48.032Z,31.45
2018-05-07T15:47:40.832Z,31.42
2018-05-07T15:48:40.717Z,31.29
2018-05-07T15:50:33.580Z,30.96
2018-05-07T15:51:33.465Z,30.96
2018-05-07T15:53:26.379Z,30.60
2018-05-07T15:54:26.226Z,30.68
2018-05-07T15:56:19.584Z,30.90
2018-05-07T15:57:19.479Z,30.68
2018-05-07T15:59:12.336Z,30.45
2018-05-07T16:00:12.225Z,30.82
2018-05-07T16:02:05.079Z,31.24
2018-05-07T16:03:05.068Z,31.41
2018-05-07T16:04:57.810Z,31.52
2018-05-07T16:05:57.771Z,31.74
2018-05-07T16:07:50.598Z,32.06
2018-05-07T16:08:50.533Z,32.19
2018-05-07T16:10:44.740Z,32.36
2018-05-07T16:11:44.651Z,32.70
2018-05-07T16:13:37.539Z,32.51
2018-05-07T16:14:37.448Z,32.75
2018-05-07T16:16:30.279Z,32.73
2018-05-07T16:17:30.175Z,32.43
2018-05-07T16:19:23.018Z,32.13
2018-05-07T16:20:22.942Z,32.35
2018-05-07T16:22:15.879Z,32.39
2018-05-07T16:23:15.893Z,32.58
2018-05-07T16:25:08.495Z,32.61
2018-05-07T16:26:08.406Z,32.91
2018-05-07T16:28:01.292Z,32.83
2018-05-07T16:29:01.153Z,33.06
2018-05-07T16:30:54.090Z,32.90
2018-05-07T16:31:53.940Z,32.99
2018-05-07T16:33:46.762Z,32.75
2018-05-07T16:34:46.661Z,32.70
2018-05-07T16:36:40.049Z,32.50
2018-05-07T16:37:39.418Z,32.65
2018-05-07T16:39:32.309Z,32.87
2018-05-07T16:40:32.157Z,32.90
2018-05-07T16:42:24.999Z,32.61
2018-05-07T16:43:24.926Z,32.45
2018-05-07T16:45:17.792Z,32.73
2018-05-07T16:46:17.671Z,32.77
2018-05-07T16:48:10.509Z,32.90
2018-05-07T16:49:10.447Z,32.95
2018-05-07T16:51:03.312Z,33.04
2018-05-07T16:52:04.197Z,32.99
2018-05-07T16:53:56.531Z,33.03
2018-05-07T16:54:55.914Z,32.95
2018-05-07T16:56:48.754Z,33.14
2018-05-07T16:57:48.670Z,33.01
2018-05-07T16:59:41.539Z,32.68
2018-05-07T17:00:41.466Z,32.76
2018-05-07T17:02:34.297Z,32.57
2018-05-07T17:03:34.155Z,32.68
2018-05-07T17:05:27.038Z,32.53
2018-05-07T17:06:26.919Z,32.36
2018-05-07T17:08:19.799Z,32.65
2018-05-07T17:09:19.688Z,32.79
2018-05-07T17:11:13.048Z,32.57
2018-05-07T17:12:12.922Z,32.65
2018-05-07T17:14:05.933Z,32.57
2018-05-07T17:15:05.783Z,32.65
2018-05-07T17:16:58.662Z,32.36
2018-05-07T17:17:58.528Z,32.53
2018-05-07T17:19:51.475Z,32.68
2018-05-07T17:20:51.381Z,32.57
2018-05-07T17:22:44.234Z,32.27
2018-05-07T17:23:44.129Z,32.17
2018-05-07T17:25:38.002Z,32.27
2018-05-07T17:26:36.876Z,32.04
2018-05-07T17:28:29.799Z,32.21
2018-05-07T17:29:29.632Z,32.05
2018-05-07T17:31:22.449Z,31.68
2018-05-07T17:32:22.386Z,31.57
2018-05-07T17:34:15.207Z,31.78
2018-05-07T17:35:15.128Z,31.68
2018-05-07T17:37:08.030Z,31.79
2018-05-07T17:38:07.897Z,31.84
2018-05-07T17:40:00.770Z,31.86
2018-05-07T17:41:00.630Z,32.05
2018-05-07T17:42:53.459Z,31.67
2018-05-07T17:43:53.379Z,31.60
2018-05-07T17:45:46.210Z,31.64
2018-05-07T17:46:46.129Z,31.46
2018-05-07T17:48:38.971Z,31.38
2018-05-07T17:49:38.878Z,31.38
2018-05-07T17:51:31.754Z,31.10
2018-05-07T17:52:31.652Z,31.15
2018-05-07T17:54:24.531Z,30.99
2018-05-07T17:55:24.439Z,30.68
2018-05-07T17:57:17.204Z,29.44
2018-05-07T17:58:17.127Z,28.50
2018-05-07T18:00:09.958Z,27.32
2018-05-07T18:01:09.889Z,26.94
2018-05-07T18:03:02.684Z,25.95
2018-05-07T18:04:02.618Z,25.71
2018-05-07T18:05:55.461Z,25.36
2018-05-07T18:06:55.367Z,25.11
2018-05-07T18:08:48.261Z,24.65
2018-05-07T18:09:48.112Z,24.51
2018-05-07T18:11:41.014Z,24.19
2018-05-07T18:12:40.872Z,23.98
2018-05-07T18:14:33.696Z,23.78
2018-05-07T18:15:33.614Z,23.56
2018-05-07T18:17:26.471Z,23.25
2018-05-07T18:18:26.376Z,23.15
2018-05-07T18:20:19.320Z,23.03
2018-05-07T18:21:19.192Z,22.98
2018-05-07T18:23:11.934Z,22.74
2018-05-07T18:24:11.853Z,22.70
2018-05-07T18:26:04.737Z,22.59
2018-05-07T18:27:04.620Z,22.51
2018-05-07T18:28:57.463Z,22.44
2018-05-07T18:29:57.348Z,22.48
2018-05-07T18:31:50.230Z,22.18
2018-05-07T18:32:50.103Z,22.11
2018-05-07T18:34:42.933Z,21.75
2018-05-07T18:35:42.851Z,21.80
2018-05-07T18:37:35.728Z,21.74
2018-05-07T18:38:35.639Z,21.71
2018-05-07T18:40:28.954Z,21.59
2018-05-07T18:41:28.857Z,21.41
2018-05-07T18:43:21.833Z,21.32
2018-05-07T18:44:21.748Z,21.14